sensor_id;sensor_type;location;lat;lon;timestamp;P1;durP1;ratioP1;P2;durP2;ratioP2
11960;SDS011;6040;49.358;11.140;2024-03-17T00:01:57;2.20;;;1.73;;
11960;SDS011;6040;49.358;11.140;2024-03-17T00:04:23;3.07;;;1.73;;
11960;SDS011;6040;49.358;11.140;2024-03-17T00:06:53;3.57;;;1.50;;
11960;SDS011;6040;49.358;11.140;2024-03-17T00:09:19;3.77;;;2.20;;
11960;SDS011;6040;49.358;11.140;2024-03-17T00:11:46;6.87;;;3.13;;
11960;SDS011;6040;49.358;11.140;2024-03-17T00:14:12;6.57;;;2.93;;
11960;SDS011;6040;49.358;11.140;2024-03-17T00:16:39;2.33;;;2.00;;
11960;SDS011;6040;49.358;11.140;2024-03-17T00:19:04;3.67;;;2.07;;
11960;SDS011;6040;49.358;11.140;2024-03-17T00:21:31;2.30;;;2.03;;
11960;SDS011;6040;49.358;11.140;2024-03-17T00:23:58;2.30;;;2.10;;
11960;SDS011;6040;49.358;11.140;2024-03-17T00:26:27;2.00;;;1.70;;
11960;SDS011;6040;49.358;11.140;2024-03-17T00:28:54;2.97;;;1.77;;
11960;SDS011;6040;49.358;11.140;2024-03-17T00:31:21;2.80;;;1.70;;
11960;SDS011;6040;49.358;11.140;2024-03-17T00:33:46;1.70;;;1.60;;
11960;SDS011;6040;49.358;11.140;2024-03-17T00:36:13;2.90;;;2.10;;
11960;SDS011;6040;49.358;11.140;2024-03-17T00:38:40;5.30;;;2.40;;
11960;SDS011;6040;49.358;11.140;2024-03-17T00:41:07;4.20;;;2.67;;
11960;SDS011;6040;49.358;11.140;2024-03-17T00:43:34;4.40;;;2.70;;
11960;SDS011;6040;49.358;11.140;2024-03-17T00:46:02;3.30;;;3.00;;
11960;SDS011;6040;49.358;11.140;2024-03-17T00:48:29;3.40;;;2.50;;
11960;SDS011;6040;49.358;11.140;2024-03-17T00:50:55;4.53;;;2.67;;
11960;SDS011;6040;49.358;11.140;2024-03-17T00:53:22;4.67;;;2.10;;
11960;SDS011;6040;49.358;11.140;2024-03-17T00:55:50;3.83;;;1.70;;
11960;SDS011;6040;49.358;11.140;2024-03-17T00:58:19;1.93;;;1.70;;
11960;SDS011;6040;49.358;11.140;2024-03-17T01:00:46;1.50;;;1.40;;
11960;SDS011;6040;49.358;11.140;2024-03-17T01:03:14;3.50;;;1.60;;
11960;SDS011;6040;49.358;11.140;2024-03-17T01:05:40;6.10;;;1.90;;
11960;SDS011;6040;49.358;11.140;2024-03-17T01:08:09;4.13;;;3.60;;
11960;SDS011;6040;49.358;11.140;2024-03-17T01:10:36;5.70;;;4.27;;
11960;SDS011;6040;49.358;11.140;2024-03-17T01:13:05;4.20;;;3.23;;
11960;SDS011;6040;49.358;11.140;2024-03-17T01:15:34;4.07;;;3.47;;
11960;SDS011;6040;49.358;11.140;2024-03-17T01:18:01;5.23;;;3.00;;
11960;SDS011;6040;49.358;11.140;2024-03-17T01:20:29;3.33;;;2.80;;
11960;SDS011;6040;49.358;11.140;2024-03-17T01:22:56;3.93;;;2.67;;
11960;SDS011;6040;49.358;11.140;2024-03-17T01:25:22;8.87;;;2.40;;
11960;SDS011;6040;49.358;11.140;2024-03-17T01:27:50;4.17;;;2.37;;
11960;SDS011;6040;49.358;11.140;2024-03-17T01:30:16;3.27;;;2.43;;
11960;SDS011;6040;49.358;11.140;2024-03-17T01:32:45;2.27;;;1.90;;
11960;SDS011;6040;49.358;11.140;2024-03-17T01:35:11;3.07;;;2.30;;
11960;SDS011;6040;49.358;11.140;2024-03-17T01:37:38;4.53;;;2.67;;
11960;SDS011;6040;49.358;11.140;2024-03-17T01:40:05;4.57;;;2.50;;
11960;SDS011;6040;49.358;11.140;2024-03-17T01:42:34;3.97;;;2.90;;
11960;SDS011;6040;49.358;11.140;2024-03-17T01:45:00;4.23;;;2.90;;
11960;SDS011;6040;49.358;11.140;2024-03-17T01:47:26;3.77;;;2.97;;
11960;SDS011;6040;49.358;11.140;2024-03-17T01:49:54;4.23;;;2.80;;
11960;SDS011;6040;49.358;11.140;2024-03-17T01:52:21;3.67;;;2.73;;
11960;SDS011;6040;49.358;11.140;2024-03-17T01:54:47;4.17;;;2.80;;
11960;SDS011;6040;49.358;11.140;2024-03-17T01:57:14;3.97;;;3.10;;
11960;SDS011;6040;49.358;11.140;2024-03-17T01:59:40;5.27;;;2.80;;
11960;SDS011;6040;49.358;11.140;2024-03-17T02:02:07;3.07;;;2.23;;
11960;SDS011;6040;49.358;11.140;2024-03-17T02:04:33;4.43;;;2.47;;
11960;SDS011;6040;49.358;11.140;2024-03-17T02:07:01;4.80;;;2.20;;
11960;SDS011;6040;49.358;11.140;2024-03-17T02:09:27;4.63;;;2.77;;
11960;SDS011;6040;49.358;11.140;2024-03-17T02:11:53;2.67;;;2.47;;
11960;SDS011;6040;49.358;11.140;2024-03-17T02:14:19;3.90;;;3.10;;
11960;SDS011;6040;49.358;11.140;2024-03-17T02:16:46;11.57;;;3.03;;
11960;SDS011;6040;49.358;11.140;2024-03-17T02:19:12;5.43;;;3.10;;
11960;SDS011;6040;49.358;11.140;2024-03-17T02:21:39;2.90;;;2.60;;
11960;SDS011;6040;49.358;11.140;2024-03-17T02:24:07;2.97;;;2.53;;
11960;SDS011;6040;49.358;11.140;2024-03-17T02:26:34;3.30;;;2.97;;
11960;SDS011;6040;49.358;11.140;2024-03-17T02:29:00;5.60;;;3.10;;
11960;SDS011;6040;49.358;11.140;2024-03-17T02:31:27;2.53;;;2.33;;
11960;SDS011;6040;49.358;11.140;2024-03-17T02:33:53;4.97;;;2.50;;
11960;SDS011;6040;49.358;11.140;2024-03-17T02:36:19;6.07;;;2.53;;
11960;SDS011;6040;49.358;11.140;2024-03-17T02:38:45;3.67;;;2.73;;
11960;SDS011;6040;49.358;11.140;2024-03-17T02:41:31;4.63;;;2.70;;
11960;SDS011;6040;49.358;11.140;2024-03-17T02:43:58;3.60;;;2.87;;
11960;SDS011;6040;49.358;11.140;2024-03-17T02:46:24;4.20;;;2.73;;
11960;SDS011;6040;49.358;11.140;2024-03-17T02:48:52;2.87;;;2.60;;
11960;SDS011;6040;49.358;11.140;2024-03-17T02:51:20;3.77;;;2.77;;
11960;SDS011;6040;49.358;11.140;2024-03-17T02:53:48;4.33;;;3.03;;
11960;SDS011;6040;49.358;11.140;2024-03-17T02:56:16;4.30;;;2.70;;
11960;SDS011;6040;49.358;11.140;2024-03-17T02:58:45;4.70;;;2.80;;
11960;SDS011;6040;49.358;11.140;2024-03-17T03:01:12;3.23;;;2.83;;
11960;SDS011;6040;49.358;11.140;2024-03-17T03:03:40;3.47;;;2.63;;
11960;SDS011;6040;49.358;11.140;2024-03-17T03:06:07;3.70;;;2.70;;
11960;SDS011;6040;49.358;11.140;2024-03-17T03:08:36;2.83;;;2.37;;
11960;SDS011;6040;49.358;11.140;2024-03-17T03:11:05;3.03;;;2.70;;
11960;SDS011;6040;49.358;11.140;2024-03-17T03:13:35;3.17;;;2.87;;
11960;SDS011;6040;49.358;11.140;2024-03-17T03:16:04;5.83;;;2.73;;
11960;SDS011;6040;49.358;11.140;2024-03-17T03:18:33;4.83;;;2.60;;
11960;SDS011;6040;49.358;11.140;2024-03-17T03:20:59;4.27;;;2.80;;
11960;SDS011;6040;49.358;11.140;2024-03-17T03:23:26;3.40;;;2.57;;
11960;SDS011;6040;49.358;11.140;2024-03-17T03:25:56;2.70;;;2.50;;
11960;SDS011;6040;49.358;11.140;2024-03-17T03:28:24;3.73;;;2.70;;
11960;SDS011;6040;49.358;11.140;2024-03-17T03:30:51;5.50;;;3.30;;
11960;SDS011;6040;49.358;11.140;2024-03-17T03:33:19;4.43;;;3.57;;
11960;SDS011;6040;49.358;11.140;2024-03-17T03:35:47;3.27;;;2.90;;
11960;SDS011;6040;49.358;11.140;2024-03-17T03:38:15;3.00;;;2.53;;
11960;SDS011;6040;49.358;11.140;2024-03-17T03:40:42;3.30;;;3.00;;
11960;SDS011;6040;49.358;11.140;2024-03-17T03:43:09;3.40;;;2.77;;
11960;SDS011;6040;49.358;11.140;2024-03-17T03:45:38;3.10;;;2.73;;
11960;SDS011;6040;49.358;11.140;2024-03-17T03:48:05;4.40;;;2.73;;
11960;SDS011;6040;49.358;11.140;2024-03-17T03:50:35;3.70;;;2.90;;
11960;SDS011;6040;49.358;11.140;2024-03-17T03:53:03;4.40;;;3.20;;
11960;SDS011;6040;49.358;11.140;2024-03-17T03:55:31;3.60;;;3.10;;
11960;SDS011;6040;49.358;11.140;2024-03-17T03:57:58;5.50;;;3.47;;
11960;SDS011;6040;49.358;11.140;2024-03-17T04:00:24;7.13;;;4.03;;
11960;SDS011;6040;49.358;11.140;2024-03-17T04:02:54;3.63;;;3.30;;
11960;SDS011;6040;49.358;11.140;2024-03-17T04:05:21;4.20;;;3.63;;
11960;SDS011;6040;49.358;11.140;2024-03-17T04:07:50;4.60;;;3.47;;
11960;SDS011;6040;49.358;11.140;2024-03-17T04:10:16;5.67;;;3.60;;
11960;SDS011;6040;49.358;11.140;2024-03-17T04:12:45;4.57;;;3.83;;
11960;SDS011;6040;49.358;11.140;2024-03-17T04:15:12;4.53;;;3.70;;
11960;SDS011;6040;49.358;11.140;2024-03-17T04:17:39;7.17;;;4.00;;
11960;SDS011;6040;49.358;11.140;2024-03-17T04:20:07;5.17;;;3.87;;
11960;SDS011;6040;49.358;11.140;2024-03-17T04:22:38;5.47;;;3.63;;
11960;SDS011;6040;49.358;11.140;2024-03-17T04:25:07;4.20;;;3.50;;
11960;SDS011;6040;49.358;11.140;2024-03-17T04:27:34;4.77;;;3.60;;
11960;SDS011;6040;49.358;11.140;2024-03-17T04:30:02;5.53;;;3.77;;
11960;SDS011;6040;49.358;11.140;2024-03-17T04:32:31;3.90;;;3.13;;
11960;SDS011;6040;49.358;11.140;2024-03-17T04:34:58;6.03;;;3.43;;
11960;SDS011;6040;49.358;11.140;2024-03-17T04:37:25;4.57;;;3.90;;
11960;SDS011;6040;49.358;11.140;2024-03-17T04:39:52;4.47;;;3.40;;
11960;SDS011;6040;49.358;11.140;2024-03-17T04:42:23;5.03;;;3.53;;
11960;SDS011;6040;49.358;11.140;2024-03-17T04:44:50;4.33;;;3.57;;
11960;SDS011;6040;49.358;11.140;2024-03-17T04:47:18;4.87;;;3.60;;
11960;SDS011;6040;49.358;11.140;2024-03-17T04:49:45;4.53;;;3.23;;
11960;SDS011;6040;49.358;11.140;2024-03-17T04:52:12;4.93;;;3.20;;
11960;SDS011;6040;49.358;11.140;2024-03-17T04:54:41;4.63;;;3.60;;
11960;SDS011;6040;49.358;11.140;2024-03-17T04:57:08;3.77;;;3.33;;
11960;SDS011;6040;49.358;11.140;2024-03-17T04:59:36;4.73;;;3.93;;
11960;SDS011;6040;49.358;11.140;2024-03-17T05:02:04;5.80;;;4.33;;
11960;SDS011;6040;49.358;11.140;2024-03-17T05:04:31;5.07;;;3.80;;
11960;SDS011;6040;49.358;11.140;2024-03-17T05:06:58;5.97;;;3.90;;
11960;SDS011;6040;49.358;11.140;2024-03-17T05:09:24;4.53;;;3.43;;
11960;SDS011;6040;49.358;11.140;2024-03-17T05:11:51;4.50;;;3.90;;
11960;SDS011;6040;49.358;11.140;2024-03-17T05:14:18;5.30;;;4.50;;
11960;SDS011;6040;49.358;11.140;2024-03-17T05:16:48;4.63;;;4.20;;
11960;SDS011;6040;49.358;11.140;2024-03-17T05:19:16;3.80;;;3.43;;
11960;SDS011;6040;49.358;11.140;2024-03-17T05:21:43;6.47;;;4.77;;
11960;SDS011;6040;49.358;11.140;2024-03-17T05:24:10;6.20;;;4.43;;
11960;SDS011;6040;49.358;11.140;2024-03-17T05:26:37;7.03;;;4.90;;
11960;SDS011;6040;49.358;11.140;2024-03-17T05:29:04;6.57;;;4.70;;
11960;SDS011;6040;49.358;11.140;2024-03-17T05:31:31;6.60;;;5.33;;
11960;SDS011;6040;49.358;11.140;2024-03-17T05:33:59;8.60;;;5.30;;
11960;SDS011;6040;49.358;11.140;2024-03-17T05:36:26;6.20;;;4.57;;
11960;SDS011;6040;49.358;11.140;2024-03-17T05:38:57;6.23;;;4.77;;
11960;SDS011;6040;49.358;11.140;2024-03-17T05:41:24;7.00;;;5.30;;
11960;SDS011;6040;49.358;11.140;2024-03-17T05:43:51;6.10;;;4.80;;
11960;SDS011;6040;49.358;11.140;2024-03-17T05:46:18;7.00;;;5.50;;
11960;SDS011;6040;49.358;11.140;2024-03-17T05:48:44;6.70;;;5.50;;
11960;SDS011;6040;49.358;11.140;2024-03-17T05:51:13;6.97;;;5.00;;
11960;SDS011;6040;49.358;11.140;2024-03-17T05:53:41;7.73;;;5.50;;
11960;SDS011;6040;49.358;11.140;2024-03-17T05:56:09;6.67;;;5.10;;
11960;SDS011;6040;49.358;11.140;2024-03-17T05:58:37;8.67;;;5.70;;
11960;SDS011;6040;49.358;11.140;2024-03-17T06:01:04;6.60;;;5.57;;
11960;SDS011;6040;49.358;11.140;2024-03-17T06:03:32;7.20;;;5.43;;
11960;SDS011;6040;49.358;11.140;2024-03-17T06:06:00;6.50;;;5.50;;
11960;SDS011;6040;49.358;11.140;2024-03-17T06:08:29;7.70;;;5.63;;
11960;SDS011;6040;49.358;11.140;2024-03-17T06:10:56;6.93;;;5.40;;
11960;SDS011;6040;49.358;11.140;2024-03-17T06:13:25;6.77;;;5.10;;
11960;SDS011;6040;49.358;11.140;2024-03-17T06:15:53;8.03;;;5.80;;
11960;SDS011;6040;49.358;11.140;2024-03-17T06:18:20;6.40;;;5.27;;
11960;SDS011;6040;49.358;11.140;2024-03-17T06:20:48;6.70;;;5.00;;
11960;SDS011;6040;49.358;11.140;2024-03-17T06:23:15;7.37;;;5.43;;
11960;SDS011;6040;49.358;11.140;2024-03-17T06:25:44;7.07;;;5.77;;
11960;SDS011;6040;49.358;11.140;2024-03-17T06:28:12;6.43;;;5.30;;
11960;SDS011;6040;49.358;11.140;2024-03-17T06:30:39;7.87;;;5.70;;
11960;SDS011;6040;49.358;11.140;2024-03-17T06:33:06;7.23;;;5.37;;
11960;SDS011;6040;49.358;11.140;2024-03-17T06:35:36;7.73;;;5.70;;
11960;SDS011;6040;49.358;11.140;2024-03-17T06:38:02;9.30;;;6.20;;
11960;SDS011;6040;49.358;11.140;2024-03-17T06:40:29;8.73;;;5.93;;
11960;SDS011;6040;49.358;11.140;2024-03-17T06:42:58;7.77;;;5.90;;
11960;SDS011;6040;49.358;11.140;2024-03-17T06:45:24;7.83;;;6.27;;
11960;SDS011;6040;49.358;11.140;2024-03-17T06:47:52;8.07;;;6.10;;
11960;SDS011;6040;49.358;11.140;2024-03-17T06:50:20;6.97;;;5.90;;
11960;SDS011;6040;49.358;11.140;2024-03-17T06:52:47;6.83;;;5.50;;
11960;SDS011;6040;49.358;11.140;2024-03-17T06:55:14;8.03;;;5.93;;
11960;SDS011;6040;49.358;11.140;2024-03-17T06:57:41;8.27;;;6.23;;
11960;SDS011;6040;49.358;11.140;2024-03-17T07:00:11;7.77;;;6.03;;
11960;SDS011;6040;49.358;11.140;2024-03-17T07:02:41;7.00;;;5.60;;
11960;SDS011;6040;49.358;11.140;2024-03-17T07:05:11;6.43;;;5.70;;
11960;SDS011;6040;49.358;11.140;2024-03-17T07:07:40;8.57;;;6.33;;
11960;SDS011;6040;49.358;11.140;2024-03-17T07:10:07;6.90;;;6.00;;
11960;SDS011;6040;49.358;11.140;2024-03-17T07:12:36;9.73;;;6.40;;
11960;SDS011;6040;49.358;11.140;2024-03-17T07:15:03;7.83;;;6.30;;
11960;SDS011;6040;49.358;11.140;2024-03-17T07:17:31;10.40;;;6.90;;
11960;SDS011;6040;49.358;11.140;2024-03-17T07:19:58;9.10;;;6.57;;
11960;SDS011;6040;49.358;11.140;2024-03-17T07:22:25;8.93;;;6.90;;
11960;SDS011;6040;49.358;11.140;2024-03-17T07:24:53;9.80;;;6.83;;
11960;SDS011;6040;49.358;11.140;2024-03-17T07:27:25;10.00;;;6.97;;
11960;SDS011;6040;49.358;11.140;2024-03-17T07:29:52;9.97;;;6.87;;
11960;SDS011;6040;49.358;11.140;2024-03-17T07:32:19;8.67;;;6.80;;
11960;SDS011;6040;49.358;11.140;2024-03-17T07:34:47;11.53;;;7.80;;
11960;SDS011;6040;49.358;11.140;2024-03-17T07:37:15;10.37;;;7.23;;
11960;SDS011;6040;49.358;11.140;2024-03-17T07:39:42;9.30;;;7.33;;
11960;SDS011;6040;49.358;11.140;2024-03-17T07:42:08;8.93;;;7.00;;
11960;SDS011;6040;49.358;11.140;2024-03-17T07:44:36;9.80;;;6.77;;
11960;SDS011;6040;49.358;11.140;2024-03-17T07:47:03;9.73;;;7.20;;
11960;SDS011;6040;49.358;11.140;2024-03-17T07:49:31;9.87;;;7.30;;
11960;SDS011;6040;49.358;11.140;2024-03-17T07:51:59;7.97;;;6.23;;
11960;SDS011;6040;49.358;11.140;2024-03-17T07:54:27;8.13;;;6.60;;
11960;SDS011;6040;49.358;11.140;2024-03-17T07:56:54;11.07;;;7.37;;
11960;SDS011;6040;49.358;11.140;2024-03-17T07:59:21;10.60;;;7.93;;
11960;SDS011;6040;49.358;11.140;2024-03-17T08:01:48;10.57;;;7.70;;
11960;SDS011;6040;49.358;11.140;2024-03-17T08:04:15;9.40;;;6.60;;
11960;SDS011;6040;49.358;11.140;2024-03-17T08:06:42;8.33;;;6.80;;
11960;SDS011;6040;49.358;11.140;2024-03-17T08:09:10;8.53;;;7.27;;
11960;SDS011;6040;49.358;11.140;2024-03-17T08:11:37;7.27;;;6.40;;
11960;SDS011;6040;49.358;11.140;2024-03-17T08:14:08;8.43;;;6.30;;
11960;SDS011;6040;49.358;11.140;2024-03-17T08:16:35;7.33;;;5.57;;
11960;SDS011;6040;49.358;11.140;2024-03-17T08:19:02;5.80;;;5.03;;
11960;SDS011;6040;49.358;11.140;2024-03-17T08:21:29;6.40;;;4.63;;
11960;SDS011;6040;49.358;11.140;2024-03-17T08:23:56;5.60;;;5.00;;
11960;SDS011;6040;49.358;11.140;2024-03-17T08:26:24;6.33;;;5.33;;
11960;SDS011;6040;49.358;11.140;2024-03-17T08:28:50;7.10;;;5.70;;
11960;SDS011;6040;49.358;11.140;2024-03-17T08:31:18;5.60;;;4.67;;
11960;SDS011;6040;49.358;11.140;2024-03-17T08:33:44;5.00;;;4.20;;
11960;SDS011;6040;49.358;11.140;2024-03-17T08:36:12;5.50;;;4.40;;
11960;SDS011;6040;49.358;11.140;2024-03-17T08:38:43;4.83;;;4.03;;
11960;SDS011;6040;49.358;11.140;2024-03-17T08:41:10;5.03;;;4.27;;
11960;SDS011;6040;49.358;11.140;2024-03-17T08:43:39;4.63;;;4.10;;
11960;SDS011;6040;49.358;11.140;2024-03-17T08:46:08;5.40;;;4.23;;
11960;SDS011;6040;49.358;11.140;2024-03-17T08:48:38;5.73;;;4.43;;
11960;SDS011;6040;49.358;11.140;2024-03-17T08:51:06;4.30;;;3.90;;
11960;SDS011;6040;49.358;11.140;2024-03-17T08:53:34;5.00;;;4.20;;
11960;SDS011;6040;49.358;11.140;2024-03-17T08:56:03;5.00;;;4.10;;
11960;SDS011;6040;49.358;11.140;2024-03-17T08:58:31;5.23;;;4.13;;
11960;SDS011;6040;49.358;11.140;2024-03-17T09:01:02;6.27;;;3.70;;
11960;SDS011;6040;49.358;11.140;2024-03-17T09:03:30;4.23;;;3.83;;
11960;SDS011;6040;49.358;11.140;2024-03-17T09:05:57;5.90;;;4.33;;
11960;SDS011;6040;49.358;11.140;2024-03-17T09:08:24;4.77;;;4.17;;
11960;SDS011;6040;49.358;11.140;2024-03-17T09:10:52;5.40;;;3.97;;
11960;SDS011;6040;49.358;11.140;2024-03-17T09:13:20;4.60;;;3.83;;
11960;SDS011;6040;49.358;11.140;2024-03-17T09:15:50;6.50;;;3.80;;
11960;SDS011;6040;49.358;11.140;2024-03-17T09:18:18;6.10;;;3.77;;
11960;SDS011;6040;49.358;11.140;2024-03-17T09:20:45;5.43;;;4.10;;
11960;SDS011;6040;49.358;11.140;2024-03-17T09:23:12;5.20;;;4.13;;
11960;SDS011;6040;49.358;11.140;2024-03-17T09:25:39;4.70;;;3.97;;
11960;SDS011;6040;49.358;11.140;2024-03-17T09:28:06;4.10;;;3.70;;
11960;SDS011;6040;49.358;11.140;2024-03-17T09:30:33;4.63;;;3.77;;
11960;SDS011;6040;49.358;11.140;2024-03-17T09:33:00;4.30;;;3.90;;
11960;SDS011;6040;49.358;11.140;2024-03-17T09:35:31;4.67;;;3.77;;
11960;SDS011;6040;49.358;11.140;2024-03-17T09:37:57;5.03;;;3.97;;
11960;SDS011;6040;49.358;11.140;2024-03-17T09:40:24;5.07;;;4.37;;
11960;SDS011;6040;49.358;11.140;2024-03-17T09:42:51;8.03;;;4.60;;
11960;SDS011;6040;49.358;11.140;2024-03-17T09:45:18;4.40;;;4.00;;
11960;SDS011;6040;49.358;11.140;2024-03-17T09:47:45;5.93;;;4.13;;
11960;SDS011;6040;49.358;11.140;2024-03-17T09:50:12;5.17;;;4.40;;
11960;SDS011;6040;49.358;11.140;2024-03-17T09:52:42;5.77;;;4.40;;
11960;SDS011;6040;49.358;11.140;2024-03-17T09:55:13;4.50;;;4.10;;
11960;SDS011;6040;49.358;11.140;2024-03-17T09:57:42;4.60;;;3.90;;
11960;SDS011;6040;49.358;11.140;2024-03-17T10:00:10;4.20;;;3.60;;
11960;SDS011;6040;49.358;11.140;2024-03-17T10:02:41;5.43;;;4.07;;
11960;SDS011;6040;49.358;11.140;2024-03-17T10:05:18;4.07;;;3.67;;
11960;SDS011;6040;49.358;11.140;2024-03-17T10:07:47;5.80;;;3.77;;
11960;SDS011;6040;49.358;11.140;2024-03-17T10:10:14;5.47;;;3.50;;
11960;SDS011;6040;49.358;11.140;2024-03-17T10:12:42;5.00;;;3.70;;
11960;SDS011;6040;49.358;11.140;2024-03-17T10:15:10;4.37;;;3.30;;
11960;SDS011;6040;49.358;11.140;2024-03-17T10:17:37;5.00;;;3.53;;
11960;SDS011;6040;49.358;11.140;2024-03-17T10:20:11;4.07;;;3.50;;
11960;SDS011;6040;49.358;11.140;2024-03-17T10:22:40;6.40;;;3.57;;
11960;SDS011;6040;49.358;11.140;2024-03-17T10:25:23;5.20;;;3.50;;
11960;SDS011;6040;49.358;11.140;2024-03-17T10:27:50;5.53;;;3.60;;
11960;SDS011;6040;49.358;11.140;2024-03-17T10:30:18;5.77;;;5.17;;
11960;SDS011;6040;49.358;11.140;2024-03-17T10:32:48;4.47;;;3.77;;
11960;SDS011;6040;49.358;11.140;2024-03-17T10:35:30;5.57;;;3.90;;
11960;SDS011;6040;49.358;11.140;2024-03-17T10:37:59;4.67;;;3.83;;
11960;SDS011;6040;49.358;11.140;2024-03-17T10:40:29;6.83;;;3.73;;
11960;SDS011;6040;49.358;11.140;2024-03-17T10:42:58;4.40;;;4.00;;
11960;SDS011;6040;49.358;11.140;2024-03-17T10:45:26;5.40;;;3.57;;
11960;SDS011;6040;49.358;11.140;2024-03-17T10:47:55;5.33;;;3.73;;
11960;SDS011;6040;49.358;11.140;2024-03-17T10:50:25;5.43;;;3.83;;
11960;SDS011;6040;49.358;11.140;2024-03-17T10:53:01;5.17;;;4.30;;
11960;SDS011;6040;49.358;11.140;2024-03-17T10:55:42;4.00;;;3.60;;
11960;SDS011;6040;49.358;11.140;2024-03-17T10:58:15;6.03;;;3.90;;
11960;SDS011;6040;49.358;11.140;2024-03-17T11:00:53;5.70;;;4.33;;
11960;SDS011;6040;49.358;11.140;2024-03-17T11:03:22;4.60;;;4.03;;
11960;SDS011;6040;49.358;11.140;2024-03-17T11:05:50;4.97;;;3.80;;
11960;SDS011;6040;49.358;11.140;2024-03-17T11:08:20;6.83;;;3.90;;
11960;SDS011;6040;49.358;11.140;2024-03-17T11:10:51;4.43;;;3.90;;
11960;SDS011;6040;49.358;11.140;2024-03-17T11:13:23;17.73;;;14.33;;
11960;SDS011;6040;49.358;11.140;2024-03-17T11:15:50;4.87;;;4.17;;
11960;SDS011;6040;49.358;11.140;2024-03-17T11:21:07;5.00;;;4.50;;
11960;SDS011;6040;49.358;11.140;2024-03-17T11:23:55;6.07;;;4.23;;
11960;SDS011;6040;49.358;11.140;2024-03-17T11:26:27;5.20;;;4.70;;
11960;SDS011;6040;49.358;11.140;2024-03-17T11:28:58;4.07;;;3.67;;
11960;SDS011;6040;49.358;11.140;2024-03-17T11:31:35;4.67;;;4.10;;
11960;SDS011;6040;49.358;11.140;2024-03-17T11:34:06;5.23;;;3.90;;
11960;SDS011;6040;49.358;11.140;2024-03-17T11:36:50;4.33;;;3.90;;
11960;SDS011;6040;49.358;11.140;2024-03-17T11:39:20;4.23;;;3.60;;
11960;SDS011;6040;49.358;11.140;2024-03-17T11:41:46;5.77;;;3.90;;
11960;SDS011;6040;49.358;11.140;2024-03-17T11:44:14;6.33;;;5.73;;
11960;SDS011;6040;49.358;11.140;2024-03-17T11:46:41;7.37;;;5.80;;
11960;SDS011;6040;49.358;11.140;2024-03-17T11:49:12;4.10;;;3.70;;
11960;SDS011;6040;49.358;11.140;2024-03-17T11:51:44;5.13;;;3.97;;
11960;SDS011;6040;49.358;11.140;2024-03-17T11:54:13;7.13;;;5.87;;
11960;SDS011;6040;49.358;11.140;2024-03-17T11:56:45;4.30;;;3.90;;
11960;SDS011;6040;49.358;11.140;2024-03-17T11:59:12;4.00;;;3.57;;
11960;SDS011;6040;49.358;11.140;2024-03-17T12:01:38;4.50;;;3.60;;
11960;SDS011;6040;49.358;11.140;2024-03-17T12:04:06;3.97;;;3.53;;
11960;SDS011;6040;49.358;11.140;2024-03-17T12:06:32;4.80;;;3.73;;
11960;SDS011;6040;49.358;11.140;2024-03-17T12:09:10;4.17;;;3.37;;
11960;SDS011;6040;49.358;11.140;2024-03-17T12:11:42;4.17;;;3.40;;
11960;SDS011;6040;49.358;11.140;2024-03-17T12:14:15;7.60;;;4.97;;
11960;SDS011;6040;49.358;11.140;2024-03-17T12:16:48;4.03;;;3.40;;
11960;SDS011;6040;49.358;11.140;2024-03-17T12:19:16;4.07;;;3.13;;
11960;SDS011;6040;49.358;11.140;2024-03-17T12:21:43;3.93;;;3.47;;
11960;SDS011;6040;49.358;11.140;2024-03-17T12:24:13;3.97;;;3.23;;
11960;SDS011;6040;49.358;11.140;2024-03-17T12:26:40;4.17;;;3.40;;
11960;SDS011;6040;49.358;11.140;2024-03-17T12:29:26;3.97;;;3.57;;
11960;SDS011;6040;49.358;11.140;2024-03-17T12:31:55;4.83;;;3.40;;
11960;SDS011;6040;49.358;11.140;2024-03-17T12:34:23;5.57;;;3.33;;
11960;SDS011;6040;49.358;11.140;2024-03-17T12:36:53;5.30;;;3.83;;
11960;SDS011;6040;49.358;11.140;2024-03-17T12:39:20;5.43;;;3.40;;
11960;SDS011;6040;49.358;11.140;2024-03-17T12:42:00;5.03;;;3.63;;
11960;SDS011;6040;49.358;11.140;2024-03-17T12:44:31;5.30;;;3.60;;
11960;SDS011;6040;49.358;11.140;2024-03-17T12:46:59;3.33;;;2.93;;
11960;SDS011;6040;49.358;11.140;2024-03-17T12:49:26;3.80;;;3.40;;
11960;SDS011;6040;49.358;11.140;2024-03-17T12:51:53;4.50;;;3.30;;
11960;SDS011;6040;49.358;11.140;2024-03-17T12:54:20;4.43;;;3.60;;
11960;SDS011;6040;49.358;11.140;2024-03-17T12:56:49;4.03;;;3.40;;
11960;SDS011;6040;49.358;11.140;2024-03-17T12:59:42;3.90;;;3.50;;
11960;SDS011;6040;49.358;11.140;2024-03-17T13:02:26;3.80;;;3.40;;
11960;SDS011;6040;49.358;11.140;2024-03-17T13:07:48;4.70;;;3.57;;
11960;SDS011;6040;49.358;11.140;2024-03-17T13:10:15;3.80;;;3.20;;
11960;SDS011;6040;49.358;11.140;2024-03-17T13:12:44;4.57;;;3.50;;
11960;SDS011;6040;49.358;11.140;2024-03-17T13:15:13;3.57;;;3.10;;
11960;SDS011;6040;49.358;11.140;2024-03-17T13:17:41;4.33;;;3.50;;
11960;SDS011;6040;49.358;11.140;2024-03-17T13:20:11;3.40;;;3.10;;
11960;SDS011;6040;49.358;11.140;2024-03-17T13:22:40;3.53;;;3.20;;
11960;SDS011;6040;49.358;11.140;2024-03-17T13:25:14;3.83;;;3.43;;
11960;SDS011;6040;49.358;11.140;2024-03-17T13:27:42;6.53;;;3.83;;
11960;SDS011;6040;49.358;11.140;2024-03-17T13:30:10;4.10;;;3.00;;
11960;SDS011;6040;49.358;11.140;2024-03-17T13:32:39;4.33;;;2.90;;
11960;SDS011;6040;49.358;11.140;2024-03-17T13:35:10;3.43;;;3.13;;
11960;SDS011;6040;49.358;11.140;2024-03-17T13:37:41;3.37;;;2.87;;
11960;SDS011;6040;49.358;11.140;2024-03-17T13:40:07;3.43;;;2.63;;
11960;SDS011;6040;49.358;11.140;2024-03-17T13:42:37;3.70;;;2.70;;
11960;SDS011;6040;49.358;11.140;2024-03-17T13:45:04;3.00;;;2.70;;
11960;SDS011;6040;49.358;11.140;2024-03-17T13:47:34;3.60;;;3.13;;
11960;SDS011;6040;49.358;11.140;2024-03-17T13:50:02;3.77;;;3.10;;
11960;SDS011;6040;49.358;11.140;2024-03-17T13:52:35;3.73;;;3.30;;
11960;SDS011;6040;49.358;11.140;2024-03-17T13:55:02;3.87;;;3.07;;
11960;SDS011;6040;49.358;11.140;2024-03-17T13:57:31;3.47;;;2.90;;
11960;SDS011;6040;49.358;11.140;2024-03-17T13:59:58;3.67;;;2.80;;
11960;SDS011;6040;49.358;11.140;2024-03-17T14:02:25;3.60;;;3.03;;
11960;SDS011;6040;49.358;11.140;2024-03-17T14:04:51;3.63;;;2.63;;
11960;SDS011;6040;49.358;11.140;2024-03-17T14:07:20;4.17;;;2.80;;
11960;SDS011;6040;49.358;11.140;2024-03-17T14:09:46;3.83;;;3.40;;
11960;SDS011;6040;49.358;11.140;2024-03-17T14:12:13;5.50;;;3.50;;
11960;SDS011;6040;49.358;11.140;2024-03-17T14:14:41;3.90;;;3.57;;
11960;SDS011;6040;49.358;11.140;2024-03-17T14:17:08;6.30;;;3.90;;
11960;SDS011;6040;49.358;11.140;2024-03-17T14:19:34;4.37;;;3.80;;
11960;SDS011;6040;49.358;11.140;2024-03-17T14:22:01;4.13;;;3.50;;
11960;SDS011;6040;49.358;11.140;2024-03-17T14:24:29;5.33;;;3.57;;
11960;SDS011;6040;49.358;11.140;2024-03-17T14:26:56;3.50;;;3.20;;
11960;SDS011;6040;49.358;11.140;2024-03-17T14:29:23;4.23;;;3.40;;
11960;SDS011;6040;49.358;11.140;2024-03-17T14:31:50;4.87;;;3.77;;
11960;SDS011;6040;49.358;11.140;2024-03-17T14:34:17;4.87;;;3.30;;
11960;SDS011;6040;49.358;11.140;2024-03-17T14:36:43;4.53;;;3.50;;
11960;SDS011;6040;49.358;11.140;2024-03-17T14:39:10;7.10;;;4.13;;
11960;SDS011;6040;49.358;11.140;2024-03-17T14:41:38;4.57;;;3.50;;
11960;SDS011;6040;49.358;11.140;2024-03-17T14:44:05;3.90;;;3.37;;
11960;SDS011;6040;49.358;11.140;2024-03-17T14:46:33;5.23;;;3.93;;
11960;SDS011;6040;49.358;11.140;2024-03-17T14:49:00;4.30;;;3.30;;
11960;SDS011;6040;49.358;11.140;2024-03-17T14:51:27;5.43;;;3.77;;
11960;SDS011;6040;49.358;11.140;2024-03-17T14:53:54;4.10;;;3.33;;
11960;SDS011;6040;49.358;11.140;2024-03-17T14:56:21;6.90;;;3.63;;
11960;SDS011;6040;49.358;11.140;2024-03-17T14:58:49;5.07;;;3.57;;
11960;SDS011;6040;49.358;11.140;2024-03-17T15:01:16;7.07;;;3.83;;